createdAt,value
2022-09-23T00:02:13.803Z,97066.61
2022-09-23T00:04:41.855Z,97064.75
2022-09-23T00:07:09.342Z,97061.64
2022-09-23T00:09:39.108Z,97059.48
2022-09-23T00:12:10.628Z,97058.49
2022-09-23T00:14:39.102Z,97054.73
2022-09-23T00:17:08.536Z,97055.00
2022-09-23T00:19:39.819Z,97052.02
2022-09-23T00:22:18.691Z,97051.17
2022-09-23T00:24:52.724Z,97048.55
2022-09-23T00:30:09.775Z,97050.30
2022-09-23T00:32:43.330Z,97047.80
2022-09-23T00:35:29.016Z,97043.98
2022-09-23T00:37:58.347Z,97041.90
2022-09-23T00:40:28.805Z,97045.76
2022-09-23T00:42:58.959Z,97046.21
2022-09-23T00:45:28.731Z,97047.70
2022-09-23T00:48:06.936Z,97047.48
2022-09-23T00:50:54.226Z,97053.30
2022-09-23T00:53:27.632Z,97051.55
2022-09-23T00:56:07.000Z,97055.61
2022-09-23T00:58:51.535Z,97056.42
2022-09-23T01:01:20.512Z,97058.70
2022-09-23T01:03:50.850Z,97059.61
2022-09-23T01:06:17.762Z,97056.70
2022-09-23T01:08:56.100Z,97058.49
2022-09-23T01:12:09.692Z,97056.20
2022-09-23T01:15:13.282Z,97060.30
2022-09-23T01:18:04.910Z,97061.10
2022-09-23T01:20:38.260Z,97063.24
2022-09-23T01:23:24.334Z,97065.23
2022-09-23T01:26:26.104Z,97064.42
2022-09-23T01:29:06.814Z,97064.95
2022-09-23T01:31:49.032Z,97062.73
2022-09-23T01:35:12.374Z,97068.48
2022-09-23T01:38:21.997Z,97069.84
2022-09-23T01:41:13.406Z,97072.45
2022-09-23T01:43:47.464Z,97071.64
2022-09-23T01:46:21.691Z,97072.84
2022-09-23T01:48:53.750Z,97073.58
2022-09-23T01:51:34.101Z,97076.25
2022-09-23T01:54:15.333Z,97077.28
2022-09-23T01:57:04.970Z,97079.95
2022-09-23T01:59:59.927Z,97073.90
2022-09-23T02:03:02.959Z,97072.55
2022-09-23T02:05:36.450Z,97076.33
2022-09-23T02:08:14.773Z,97074.25
2022-09-23T02:11:10.594Z,97075.38
2022-09-23T02:13:59.994Z,97076.69
2022-09-23T02:16:44.232Z,97077.88
2022-09-23T02:19:35.324Z,97078.44
2022-09-23T02:22:14.732Z,97077.01
2022-09-23T02:24:45.018Z,97077.31
2022-09-23T02:27:59.153Z,97078.39
2022-09-23T02:30:56.038Z,97078.20
2022-09-23T02:33:34.495Z,97083.36
2022-09-23T02:36:12.072Z,97082.02
2022-09-23T02:38:45.965Z,97081.09
2022-09-23T02:41:28.841Z,97078.82
2022-09-23T02:44:01.154Z,97079.18
2022-09-23T02:46:32.118Z,97073.05
2022-09-23T02:49:09.322Z,97072.18
2022-09-23T02:51:39.639Z,97070.27
2022-09-23T02:54:14.463Z,97075.20
2022-09-23T02:56:53.836Z,97078.24
2022-09-23T02:59:25.026Z,97081.61
2022-09-23T03:01:55.929Z,97085.16
2022-09-23T03:04:35.203Z,97081.90
2022-09-23T03:07:09.220Z,97090.54
2022-09-23T03:09:56.877Z,97089.71
2022-09-23T03:12:35.679Z,97090.02
2022-09-23T03:15:22.783Z,97091.43
2022-09-23T03:18:01.080Z,97089.77
2022-09-23T03:20:35.857Z,97091.18
2022-09-23T03:23:09.727Z,97094.92
2022-09-23T03:26:13.015Z,97094.17
2022-09-23T03:28:44.233Z,97097.02
2022-09-23T03:31:16.772Z,97094.36
2022-09-23T03:33:55.769Z,97094.09
2022-09-23T03:36:53.348Z,97090.87
2022-09-23T03:39:33.403Z,97086.84
2022-09-23T03:42:06.730Z,97087.71
2022-09-23T03:44:43.335Z,97086.91
2022-09-23T03:47:16.260Z,97086.08
2022-09-23T03:49:52.923Z,97083.17
2022-09-23T03:52:24.820Z,97079.71
2022-09-23T03:55:07.453Z,97076.53
2022-09-23T03:57:37.622Z,97075.27
2022-09-23T04:00:06.883Z,97077.58
2022-09-23T04:02:39.113Z,97074.27
2022-09-23T04:05:07.438Z,97072.59
2022-09-23T04:07:34.339Z,97071.23
2022-09-23T04:10:01.589Z,97070.64
2022-09-23T04:12:28.519Z,97073.91
2022-09-23T04:14:55.436Z,97074.94
2022-09-23T04:17:22.475Z,97073.55
2022-09-23T04:19:49.397Z,97074.10
2022-09-23T04:22:17.327Z,97077.02
2022-09-23T04:24:45.595Z,97076.73
2022-09-23T04:27:12.587Z,97077.45
2022-09-23T04:29:39.527Z,97075.63
2022-09-23T04:32:06.418Z,97071.91
2022-09-23T04:34:33.611Z,97075.05
2022-09-23T04:37:00.413Z,97073.63
2022-09-23T04:39:27.339Z,97075.70
2022-09-23T04:41:55.436Z,97074.64
2022-09-23T04:44:22.218Z,97072.73
2022-09-23T04:46:53.528Z,97074.55
2022-09-23T04:49:20.512Z,97077.65
2022-09-23T04:51:47.337Z,97077.36
2022-09-23T04:54:21.256Z,97079.36
2022-09-23T04:56:56.463Z,97080.47
2022-09-23T04:59:23.932Z,97085.77
2022-09-23T05:01:51.394Z,97083.25
2022-09-23T05:04:18.361Z,97081.91
2022-09-23T05:06:45.420Z,97083.17
2022-09-23T05:09:16.857Z,97081.91
2022-09-23T05:11:44.944Z,97081.15
2022-09-23T05:14:27.542Z,97081.59
2022-09-23T05:16:54.463Z,97081.84
2022-09-23T05:19:22.483Z,97080.75
2022-09-23T05:21:49.324Z,97085.69
2022-09-23T05:24:16.447Z,97081.59
2022-09-23T05:26:43.688Z,97083.77
2022-09-23T05:29:12.572Z,97085.08
2022-09-23T05:31:39.405Z,97091.57
2022-09-23T05:34:09.854Z,97087.80
2022-09-23T05:36:38.788Z,97090.44
2022-09-23T05:39:09.397Z,97092.38
2022-09-23T05:44:33.566Z,97098.04
2022-09-23T05:47:27.259Z,97107.42
2022-09-23T05:48:16.640Z,97093.20
2022-09-23T05:49:59.898Z,97107.23
2022-09-23T05:52:27.341Z,97104.95
2022-09-23T05:55:22.102Z,97106.43
2022-09-23T05:57:48.812Z,97108.63
2022-09-23T06:00:16.025Z,97115.72
2022-09-23T06:02:46.445Z,97112.65
2022-09-23T06:05:13.538Z,97115.42
2022-09-23T06:07:40.377Z,97117.29
2022-09-23T06:10:08.179Z,97113.42
2022-09-23T06:12:38.172Z,97113.76
2022-09-23T06:15:14.142Z,97115.27
2022-09-23T06:17:58.169Z,97115.21
2022-09-23T06:20:26.142Z,97113.79
2022-09-23T06:22:55.584Z,97115.75
2022-09-23T06:25:22.980Z,97112.84
2022-09-23T06:27:54.825Z,97115.80
2022-09-23T06:30:24.304Z,97114.80
2022-09-23T06:32:53.208Z,97111.86
2022-09-23T06:35:27.489Z,97109.07
2022-09-23T06:37:54.956Z,97107.40
2022-09-23T06:40:22.301Z,97108.66
2022-09-23T06:43:00.082Z,97109.48
2022-09-23T06:45:28.094Z,97111.09
2022-09-23T06:48:09.476Z,97115.20
2022-09-23T06:50:40.923Z,97114.89
2022-09-23T06:53:08.057Z,97115.27
2022-09-23T06:55:34.924Z,97115.47
2022-09-23T06:58:01.827Z,97114.02
2022-09-23T07:00:28.874Z,97119.44
2022-09-23T07:02:56.542Z,97120.22
2022-09-23T07:05:23.626Z,97121.99
2022-09-23T07:07:50.540Z,97118.71
2022-09-23T07:10:17.607Z,97118.16
2022-09-23T07:12:44.581Z,97121.04
2022-09-23T07:15:11.684Z,97121.45
2022-09-23T07:17:42.945Z,97119.27
2022-09-23T07:20:12.894Z,97122.84
2022-09-23T07:22:39.936Z,97119.23
2022-09-23T07:25:07.496Z,97122.30
2022-09-23T07:27:34.825Z,97117.14
2022-09-23T07:30:09.267Z,97116.23
2022-09-23T07:32:47.991Z,97116.56
2022-09-23T07:35:16.515Z,97113.18
2022-09-23T07:37:43.445Z,97115.89
2022-09-23T07:40:12.909Z,97116.50
2022-09-23T07:42:40.449Z,97116.40
2022-09-23T07:45:08.551Z,97114.87
2022-09-23T07:47:35.793Z,97112.41
2022-09-23T07:50:02.801Z,97108.26
2022-09-23T07:52:31.114Z,97108.48
2022-09-23T07:55:07.816Z,97110.20
2022-09-23T07:57:34.976Z,97109.93
2022-09-23T08:00:02.786Z,97105.89
2022-09-23T08:02:38.956Z,97108.79
2022-09-23T08:05:18.100Z,97108.13
2022-09-23T08:07:45.021Z,97109.55
2022-09-23T08:10:11.861Z,97104.69
2022-09-23T08:12:39.232Z,97106.33
2022-09-23T08:15:06.755Z,97103.90
2022-09-23T08:17:33.643Z,97099.41
2022-09-23T08:20:00.776Z,97107.71
2022-09-23T08:22:28.049Z,97106.20
2022-09-23T08:24:56.564Z,97100.88
2022-09-23T08:27:23.762Z,97101.86
2022-09-23T08:29:55.687Z,97099.95
2022-09-23T08:32:22.483Z,97099.52
2022-09-23T08:34:49.325Z,97099.73
2022-09-23T08:37:16.180Z,97097.04
2022-09-23T08:39:45.160Z,97093.44
2022-09-23T08:42:20.214Z,97091.82
2022-09-23T08:45:01.066Z,97087.10
2022-09-23T08:47:48.588Z,97094.77
2022-09-23T08:50:26.814Z,97084.80
2022-09-23T08:52:58.265Z,97082.25
2022-09-23T08:55:41.548Z,97078.33
2022-09-23T08:58:40.796Z,97079.54
2022-09-23T09:01:30.300Z,97082.31
2022-09-23T09:04:03.132Z,97075.05
2022-09-23T09:07:34.815Z,97075.54
2022-09-23T09:10:16.438Z,97077.97
2022-09-23T09:13:25.398Z,97077.65
2022-09-23T09:16:36.574Z,97077.27
2022-09-23T09:19:51.460Z,97077.65
2022-09-23T09:22:39.250Z,97073.91
2022-09-23T09:25:24.385Z,97070.68
2022-09-23T09:27:53.331Z,97072.09
2022-09-23T09:30:20.691Z,97065.93
2022-09-23T09:32:50.595Z,97068.24
2022-09-23T09:35:41.869Z,97072.90
2022-09-23T09:38:08.915Z,97073.77
2022-09-23T09:40:47.772Z,97072.70
2022-09-23T09:43:24.549Z,97069.37
2022-09-23T09:46:33.615Z,97063.61
2022-09-23T09:49:11.053Z,97065.08
2022-09-23T09:51:41.981Z,97074.48
2022-09-23T09:54:22.552Z,97068.69
2022-09-23T09:56:51.403Z,97072.01
2022-09-23T09:59:28.243Z,97066.01
2022-09-23T10:02:38.459Z,97065.57
2022-09-23T10:05:07.094Z,97062.02
2022-09-23T10:07:34.932Z,97061.96
2022-09-23T10:10:31.915Z,97065.42
2022-09-23T10:13:15.608Z,97066.64
2022-09-23T10:15:45.216Z,97063.95
2022-09-23T10:18:38.129Z,97060.19
2022-09-23T10:21:14.456Z,97059.41
2022-09-23T10:23:44.967Z,97053.00
2022-09-23T10:26:16.827Z,97055.95
2022-09-23T10:28:46.592Z,97066.05
2022-09-23T10:31:36.725Z,97059.34
2022-09-23T10:34:25.998Z,97068.48
2022-09-23T10:37:18.704Z,97060.99
2022-09-23T10:40:04.803Z,97063.27
2022-09-23T10:43:22.240Z,97061.61
2022-09-23T10:46:15.372Z,97063.02
2022-09-23T10:49:09.724Z,97060.16
2022-09-23T10:52:15.651Z,97053.66
2022-09-23T10:55:16.344Z,97052.85
2022-09-23T10:57:46.381Z,97056.17
2022-09-23T11:00:16.374Z,97048.46
2022-09-23T11:02:49.057Z,97045.95
2022-09-23T11:05:54.129Z,97043.03
2022-09-23T11:09:06.336Z,97047.04
2022-09-23T11:11:45.531Z,97037.76
2022-09-23T11:14:31.817Z,97033.32
2022-09-23T11:17:14.245Z,97025.93
2022-09-23T11:20:26.598Z,97026.48
2022-09-23T11:22:59.544Z,97031.83
2022-09-23T11:25:46.297Z,97023.70
2022-09-23T11:28:40.099Z,97023.08
2022-09-23T11:31:27.304Z,97025.20
2022-09-23T11:34:02.986Z,97021.90
2022-09-23T11:37:18.336Z,97022.29
2022-09-23T11:40:34.541Z,97017.42
2022-09-23T11:43:13.726Z,97014.27
2022-09-23T11:45:44.426Z,97012.27
2022-09-23T11:48:18.301Z,97014.33
2022-09-23T11:51:05.904Z,97011.58
2022-09-23T11:53:56.452Z,97011.13
2022-09-23T11:56:36.889Z,97013.26
2022-09-23T11:59:40.526Z,97004.81
2022-09-23T12:02:36.259Z,97005.17
2022-09-23T12:05:15.430Z,97004.66
2022-09-23T12:07:53.945Z,97003.57
2022-09-23T12:10:27.098Z,96999.92
2022-09-23T12:13:05.960Z,97000.05
2022-09-23T12:15:48.460Z,97004.45
2022-09-23T12:18:35.433Z,97012.17
2022-09-23T12:21:49.391Z,97005.14
2022-09-23T12:24:25.563Z,97005.35
2022-09-23T12:26:59.297Z,97007.23
2022-09-23T12:29:29.973Z,97003.48
2022-09-23T12:32:09.461Z,97007.05
2022-09-23T12:34:48.307Z,97006.45
2022-09-23T12:37:37.717Z,97005.58
2022-09-23T12:40:28.241Z,97005.25
2022-09-23T12:42:55.835Z,97006.48
2022-09-23T12:45:33.304Z,96996.27
2022-09-23T12:48:04.065Z,97000.35
2022-09-23T12:50:50.662Z,96995.33
2022-09-23T12:53:32.758Z,96992.94
2022-09-23T12:56:17.993Z,96994.14
2022-09-23T12:58:47.903Z,96988.59
2022-09-23T13:01:18.197Z,96994.06
2022-09-23T13:04:12.974Z,96997.87
2022-09-23T13:06:42.079Z,96986.61
2022-09-23T13:09:24.352Z,96989.25
2022-09-23T13:11:55.918Z,96986.91
2022-09-23T13:14:40.442Z,96985.70
2022-09-23T13:17:33.620Z,96983.98
2022-09-23T13:20:25.852Z,96984.05
2022-09-23T13:22:53.096Z,96974.54
2022-09-23T13:25:29.124Z,96972.05
2022-09-23T13:28:03.294Z,96982.46
2022-09-23T13:30:30.029Z,96987.42
2022-09-23T13:33:10.616Z,96989.76
2022-09-23T13:35:44.092Z,96987.41
2022-09-23T13:38:27.626Z,96990.23
2022-09-23T13:41:20.005Z,96995.77
2022-09-23T13:43:55.419Z,96991.99
2022-09-23T13:46:26.033Z,96986.27
2022-09-23T13:48:55.135Z,96991.64
2022-09-23T13:51:34.585Z,96992.80
2022-09-23T13:54:33.050Z,96976.96
2022-09-23T13:57:00.534Z,96987.64
2022-09-23T13:59:30.494Z,96978.10
2022-09-23T14:02:16.493Z,96975.92
2022-09-23T14:04:44.663Z,96975.58
2022-09-23T14:07:18.610Z,96979.66
2022-09-23T14:09:51.800Z,96977.46
2022-09-23T14:12:21.909Z,96974.23
2022-09-23T14:14:52.564Z,96975.95
2022-09-23T14:17:24.790Z,96974.17
2022-09-23T14:19:51.975Z,96980.58
2022-09-23T14:22:23.185Z,96979.81
2022-09-23T14:24:51.005Z,96980.13
2022-09-23T14:27:29.390Z,96978.83
2022-09-23T14:29:57.779Z,96978.30
2022-09-23T14:32:28.518Z,96980.55
2022-09-23T14:35:27.619Z,96991.03
2022-09-23T14:38:16.681Z,96987.48
2022-09-23T14:41:17.643Z,96990.23
2022-09-23T14:43:56.754Z,96989.09
2022-09-23T14:46:29.305Z,96985.64
2022-09-23T14:48:59.151Z,96985.85
2022-09-23T14:51:54.402Z,96993.55
2022-09-23T14:54:38.881Z,96990.98
2022-09-23T14:57:26.659Z,96990.55
2022-09-23T15:00:09.283Z,96992.77
2022-09-23T15:02:39.731Z,96993.80
2022-09-23T15:05:23.083Z,96995.27
2022-09-23T15:07:57.527Z,96998.89
2022-09-23T15:10:48.713Z,96998.77
2022-09-23T15:13:26.824Z,97010.94
2022-09-23T15:18:42.307Z,97013.15
2022-09-23T15:21:10.978Z,97015.27
2022-09-23T15:23:44.093Z,97023.40
2022-09-23T15:26:16.162Z,97020.14
2022-09-23T15:28:43.982Z,97017.77
2022-09-23T15:31:16.257Z,97023.45
2022-09-23T15:33:44.025Z,97022.33
2022-09-23T15:36:27.359Z,97029.14
2022-09-23T15:39:11.757Z,97031.35
2022-09-23T15:41:38.767Z,97027.27
2022-09-23T15:44:13.965Z,97028.55
2022-09-23T15:46:46.501Z,97030.67
2022-09-23T15:49:32.496Z,97027.13
2022-09-23T15:52:01.550Z,97033.73
2022-09-23T15:54:29.410Z,97037.41
2022-09-23T15:57:08.457Z,97033.87
2022-09-23T15:59:37.665Z,97039.58
2022-09-23T16:02:20.765Z,97043.95
2022-09-23T16:04:54.533Z,97036.42
2022-09-23T16:07:21.428Z,97039.80
2022-09-23T16:10:06.579Z,97041.77
2022-09-23T16:12:33.341Z,97038.35
2022-09-23T16:15:00.121Z,97043.02
2022-09-23T16:17:30.645Z,97035.65
2022-09-23T16:19:57.581Z,97037.46
2022-09-23T16:22:31.283Z,97033.27
2022-09-23T16:24:58.089Z,97031.95
2022-09-23T16:27:25.559Z,97033.39
2022-09-23T16:29:59.239Z,97034.63
2022-09-23T16:32:35.423Z,97032.32
2022-09-23T16:35:02.631Z,97027.20
2022-09-23T16:37:29.669Z,97030.48
2022-09-23T16:39:56.683Z,97028.84
2022-09-23T16:42:32.001Z,97028.35
2022-09-23T16:44:58.896Z,97024.16
2022-09-23T16:47:25.805Z,97033.90
2022-09-23T16:49:52.644Z,97036.77
2022-09-23T16:52:23.514Z,97039.75
2022-09-23T16:54:50.547Z,97042.22
2022-09-23T16:57:17.493Z,97047.21
2022-09-23T17:00:02.904Z,97047.20
2022-09-23T17:02:48.963Z,97047.48
2022-09-23T17:05:17.990Z,97042.18
2022-09-23T17:07:44.920Z,97039.21
2022-09-23T17:10:12.432Z,97042.05
2022-09-23T17:12:39.344Z,97046.21
2022-09-23T17:15:06.809Z,97052.02
2022-09-23T17:17:36.973Z,97049.91
2022-09-23T17:20:05.406Z,97051.65
2022-09-23T17:22:33.346Z,97056.58
2022-09-23T17:25:03.105Z,97055.26
2022-09-23T17:30:26.864Z,97053.23
2022-09-23T17:32:53.942Z,97053.45
2022-09-23T17:35:20.759Z,97049.84
2022-09-23T17:37:56.071Z,97053.97
2022-09-23T17:40:25.583Z,97053.83
2022-09-23T17:42:59.476Z,97056.23
2022-09-23T17:45:26.345Z,97053.61
2022-09-23T17:47:54.275Z,97052.63
2022-09-23T17:50:24.156Z,97056.59
2022-09-23T17:52:51.158Z,97054.57
2022-09-23T17:55:18.648Z,97058.84
2022-09-23T17:57:50.223Z,97058.10
2022-09-23T18:00:32.144Z,97055.23
2022-09-23T18:02:59.200Z,97057.17
2022-09-23T18:05:28.257Z,97054.53
2022-09-23T18:07:55.074Z,97057.81
2022-09-23T18:10:24.023Z,97054.36
2022-09-23T18:12:50.816Z,97056.01
2022-09-23T18:15:25.144Z,97055.05
2022-09-23T18:17:52.040Z,97049.75
2022-09-23T18:20:18.875Z,97049.23
2022-09-23T18:22:45.685Z,97056.34
2022-09-23T18:25:35.051Z,97063.33
2022-09-23T18:28:08.515Z,97061.15
2022-09-23T18:30:35.403Z,97064.27
2022-09-23T18:33:02.844Z,97059.10
2022-09-23T18:35:30.156Z,97055.93
2022-09-23T18:38:20.954Z,97057.55
2022-09-23T18:40:57.162Z,97054.00
2022-09-23T18:43:37.264Z,97054.98
2022-09-23T18:46:10.441Z,97058.84
2022-09-23T18:48:55.856Z,97063.71
2022-09-23T18:51:28.676Z,97067.97
2022-09-23T18:54:09.779Z,97071.24
2022-09-23T18:56:41.477Z,97068.05
2022-09-23T18:59:12.398Z,97067.70
2022-09-23T19:01:39.437Z,97076.03
2022-09-23T19:04:19.968Z,97076.31
2022-09-23T19:06:47.329Z,97078.02
2022-09-23T19:09:16.314Z,97082.15
2022-09-23T19:11:43.822Z,97085.89
2022-09-23T19:14:11.770Z,97083.10
2022-09-23T19:16:40.378Z,97080.70
2022-09-23T19:19:08.310Z,97079.98
2022-09-23T19:21:35.840Z,97078.58
2022-09-23T19:24:05.899Z,97078.61
2022-09-23T19:26:38.746Z,97077.52
2022-09-23T19:29:21.207Z,97081.99
2022-09-23T19:31:48.614Z,97081.59
2022-09-23T19:34:18.856Z,97076.24
2022-09-23T19:36:47.441Z,97080.09
2022-09-23T19:39:14.223Z,97078.61
2022-09-23T19:41:41.088Z,97077.83
2022-09-23T19:44:08.241Z,97076.01
2022-09-23T19:46:37.573Z,97078.84
2022-09-23T19:49:08.697Z,97079.98
2022-09-23T19:51:36.142Z,97083.96
2022-09-23T19:54:05.056Z,97080.82
2022-09-23T19:56:33.192Z,97082.58
2022-09-23T19:59:02.583Z,97078.87
2022-09-23T20:01:31.530Z,97083.77
2022-09-23T20:03:59.157Z,97083.55
2022-09-23T20:06:29.964Z,97085.30
2022-09-23T20:08:58.975Z,97085.45
2022-09-23T20:11:28.543Z,97088.58
2022-09-23T20:14:01.617Z,97091.64
2022-09-23T20:16:33.650Z,97094.05
2022-09-23T20:19:03.500Z,97098.05
2022-09-23T20:21:31.100Z,97092.84
2022-09-23T20:24:02.235Z,97096.21
2022-09-23T20:26:47.804Z,97091.37
2022-09-23T20:29:16.866Z,97094.68
2022-09-23T20:31:45.680Z,97090.75
2022-09-23T20:34:12.716Z,97091.38
2022-09-23T20:36:41.332Z,97090.79
2022-09-23T20:39:09.689Z,97094.91
2022-09-23T20:41:39.557Z,97094.45
2022-09-23T20:44:17.065Z,97098.55
2022-09-23T20:46:48.598Z,97098.29
2022-09-23T20:49:40.832Z,97098.92
2022-09-23T20:52:08.674Z,97095.30
2022-09-23T20:54:38.314Z,97093.55
2022-09-23T20:57:06.002Z,97099.86
2022-09-23T20:59:34.241Z,97094.27
2022-09-23T21:02:33.233Z,97093.74
2022-09-23T21:05:00.210Z,97094.75
2022-09-23T21:07:27.202Z,97095.48
2022-09-23T21:09:54.128Z,97096.33
2022-09-23T21:12:22.050Z,97098.80
2022-09-23T21:14:49.326Z,97099.11
2022-09-23T21:17:16.902Z,97103.03
2022-09-23T21:19:43.711Z,97100.54
2022-09-23T21:22:11.909Z,97102.54
2022-09-23T21:25:25.879Z,97099.32
2022-09-23T21:27:26.608Z,97097.13
2022-09-23T21:29:53.405Z,97100.84
2022-09-23T21:32:20.959Z,97096.66
2022-09-23T21:34:48.467Z,97093.87
2022-09-23T21:37:15.283Z,97094.87
2022-09-23T21:40:02.203Z,97094.44
2022-09-23T21:42:29.471Z,97089.81
2022-09-23T21:44:56.527Z,97092.92
2022-09-23T21:47:23.342Z,97089.27
2022-09-23T21:49:51.098Z,97090.83
2022-09-23T21:52:18.248Z,97090.95
2022-09-23T21:54:46.105Z,97093.95
2022-09-23T21:57:13.474Z,97096.33
2022-09-23T21:59:40.294Z,97094.21
2022-09-23T22:02:07.383Z,97094.67
2022-09-23T22:04:34.327Z,97094.94
2022-09-23T22:07:01.674Z,97096.65
2022-09-23T22:09:28.676Z,97096.45
2022-09-23T22:12:08.971Z,97095.91
2022-09-23T22:14:35.949Z,97096.71
2022-09-23T22:17:04.888Z,97097.45
2022-09-23T22:19:35.549Z,97095.98
2022-09-23T22:22:09.347Z,97096.59
2022-09-23T22:24:36.130Z,97095.52
2022-09-23T22:27:03.067Z,97094.04
2022-09-23T22:29:48.836Z,97095.29
2022-09-23T22:32:38.649Z,97094.44
2022-09-23T22:35:15.959Z,97093.84
2022-09-23T22:37:43.387Z,97089.59
2022-09-23T22:40:14.845Z,97089.42
2022-09-23T22:42:43.153Z,97090.41
2022-09-23T22:45:11.668Z,97089.98
2022-09-23T22:47:40.468Z,97093.10
2022-09-23T22:50:08.872Z,97096.92
2022-09-23T22:52:37.305Z,97088.27
2022-09-23T22:55:07.356Z,97091.51
2022-09-23T22:57:34.513Z,97093.09
2022-09-23T23:00:03.210Z,97093.05
2022-09-23T23:02:30.868Z,97096.48
2022-09-23T23:04:59.961Z,97100.67
2022-09-23T23:07:26.877Z,97095.80
2022-09-23T23:09:57.809Z,97097.59
2022-09-23T23:12:26.155Z,97092.10
2022-09-23T23:14:57.066Z,97095.34
2022-09-23T23:17:23.986Z,97095.92
2022-09-23T23:19:50.821Z,97095.09
2022-09-23T23:22:17.679Z,97093.06
2022-09-23T23:24:45.233Z,97094.24
2022-09-23T23:27:11.985Z,97094.24
2022-09-23T23:29:38.802Z,97093.66
2022-09-23T23:32:07.153Z,97092.38
2022-09-23T23:34:34.027Z,97089.88
2022-09-23T23:37:00.971Z,97087.26
2022-09-23T23:39:27.954Z,97090.19
2022-09-23T23:41:56.662Z,97086.30
2022-09-23T23:44:25.309Z,97083.71
2022-09-23T23:46:53.104Z,97079.05
2022-09-23T23:49:21.055Z,97080.52
2022-09-23T23:51:48.335Z,97079.84
2022-09-23T23:54:27.818Z,97083.85
2022-09-23T23:56:54.776Z,97083.38
2022-09-23T23:59:21.559Z,97081.19
